Saturday, February 24, 2018, 3:16 AM EST
Back to Local

KMIV, Millville Municipal Airport

Location: Millville, NJ, United States Lat: 39.367
Local Time: 3:16 AM EST ( 8:16 GMT) Lon: -75.083
Time Zone: US/Eastern Elev: 85 ft

Show me the last for .
Show Decoded

2018-02-24 02:54 METAR KMIV 240754Z AUTO 26006KT 3SM BR OVC003 08/07 A3020 RMK AO2 SLP226
                 T00780072 =
2018-02-24 02:23 METAR KMIV 240723Z AUTO 26007KT 5SM BR OVC004 07/07 A3022 RMK AO2 T00720067 =
2018-02-24 01:54 METAR KMIV 240654Z AUTO 25009KT 10SM OVC005 07/07 A3022 RMK AO2 SLP231 T00720067
                 =
2018-02-24 00:54 METAR KMIV 240554Z AUTO 24009KT 9SM OVC005 07/07 A3023 RMK AO2 CIG 003V008
                 SLP234 T00720067 10072 20067 56015 =
2018-02-24 00:20 METAR KMIV 240520Z AUTO 24006KT 5SM BR OVC003 07/07 A3023 RMK AO2 T00720067 =
2018-02-24 00:13 METAR KMIV 240513Z AUTO 24006KT 2 1/2SM BR OVC002 07/07 A3023 RMK AO2 T00670067
                 =
2018-02-24 00:06 METAR KMIV 240506Z AUTO 23005KT 1 3/4SM BR OVC002 07/07 A3023 RMK AO2 T00670067
                 =
2018-02-23 23:54 METAR KMIV 240454Z AUTO 24006KT 2SM BR OVC002 07/07 A3024 RMK AO2 SLP240
                 T00670067 400780039 =
2018-02-23 22:54 METAR KMIV 240354Z AUTO 24003KT 1 1/4SM BR OVC002 07/07 A3026 RMK AO2 SLP245
                 T00670067 =
2018-02-23 21:54 METAR KMIV 240254Z AUTO 23003KT 1 3/4SM BR OVC002 07/06 A3027 RMK AO2 SLP250
                 T00670061 57017 =
2018-02-23 21:23 METAR KMIV 240223Z AUTO 23003KT 1 1/2SM BR OVC002 07/07 A3029 RMK AO2 T00670067
                 =
2018-02-23 21:08 METAR KMIV 240208Z AUTO 25005KT 2SM BR OVC002 07/06 A3029 RMK AO2 T00670061 =
2018-02-23 20:54 METAR KMIV 240154Z AUTO 25005KT 3SM BR OVC003 07/07 A3029 RMK AO2 SLP258
                 T00670067 =
2018-02-23 20:22 METAR KMIV 240122Z AUTO 00000KT 1/2SM FG BKN004 OVC012 07/07 A3030 RMK AO2
                 T00720067 =
2018-02-23 20:12 METAR KMIV 240112Z AUTO 00000KT 1 3/4SM BR BKN004 OVC012 07/07 A3030 RMK AO2
                 T00720067 =
2018-02-23 20:03 METAR KMIV 240103Z AUTO 00000KT 3SM BR BKN002 OVC012 07/07 A3030 RMK AO2
                 T00720067 =
2018-02-23 19:54 METAR KMIV 240054Z AUTO 00000KT 1 1/4SM BR OVC002 07/07 A3030 RMK AO2 SLP260
                 T00720067 =
2018-02-23 19:34 METAR KMIV 240034Z AUTO 00000KT 1 1/2SM BR OVC003 07/07 A3030 RMK AO2 T00720067
                 =
2018-02-23 19:19 METAR KMIV 240019Z AUTO 00000KT 2SM BR OVC003 07/07 A3031 RMK AO2 T00720067 =
2018-02-23 18:54 METAR KMIV 232354Z AUTO 00000KT 1 3/4SM BR OVC003 07/07 A3032 RMK AO2 SLP268
                 60000 T00720072 10078 20061 56012 =
2018-02-23 18:14 METAR KMIV 232314Z AUTO 00000KT 2SM BR OVC004 07/07 A3034 RMK AO2 T00720067 =
2018-02-23 18:10 METAR KMIV 232310Z AUTO 00000KT 1 3/4SM BR OVC005 07/07 A3033 RMK AO2 T00720067
                 =
2018-02-23 17:54 METAR KMIV 232254Z AUTO 00000KT 2SM BR OVC005 07/07 A3035 RMK AO2 SLP276
                 T00720072 =
2018-02-23 17:32 METAR KMIV 232232Z AUTO 15003KT 1SM BR VV005 07/07 A3034 RMK AO2 T00720067 =
2018-02-23 17:22 METAR KMIV 232222Z AUTO 13003KT 3/4SM BR VV005 07/07 A3035 RMK AO2 T00720072 =
2018-02-23 17:04 METAR KMIV 232204Z AUTO 10004KT 1 1/2SM BR OVC004 07/07 A3035 RMK AO2 T00720067
                 =
2018-02-23 16:54 METAR KMIV 232154Z AUTO 10004KT 2SM BR OVC003 07/07 A3036 RMK AO2 SLP280
                 T00720067 =
2018-02-23 16:17 METAR KMIV 232117Z AUTO 11006KT 2SM BR OVC004 07/07 A3035 RMK AO2 T00720067 =
2018-02-23 15:54 METAR KMIV 232054Z AUTO 11005KT 2SM BR OVC005 07/07 A3037 RMK AO2 SLP284 60000
                 T00720067 56034 =
2018-02-23 15:31 METAR KMIV 232031Z AUTO 12005KT 2SM BR OVC005 08/07 A3038 RMK AO2 T00780067 =
2018-02-23 14:54 METAR KMIV 231954Z AUTO 09006KT 1 3/4SM BR OVC005 07/06 A3040 RMK AO2 PRESFR
                 SLP293 T00720061 =
2018-02-23 14:01 METAR KMIV 231901Z AUTO 08004KT 1 3/4SM BR OVC006 07/06 A3043 RMK AO2 T00670061
                 =
2018-02-23 13:54 METAR KMIV 231854Z AUTO 07005KT 1 3/4SM BR BKN004 OVC010 07/06 A3044 RMK AO2
                 RAB37E53 SLP307 P0000 T00670061 =
2018-02-23 12:54 METAR KMIV 231754Z AUTO 09006KT 1SM BR OVC005 07/06 A3047 RMK AO2 SLP318 60011
                 T00670056 10067 20039 58035 =
2018-02-23 12:22 METAR KMIV 231722Z AUTO 08007KT 1 3/4SM BR OVC007 06/05 A3049 RMK AO2 T00610050
                 =
2018-02-23 11:54 METAR KMIV 231654Z AUTO 08006KT 6SM BR OVC008 06/05 A3050 RMK AO2 RAB12E22
                 SLP329 P0000 T00610050 =
2018-02-23 10:54 METAR KMIV 231554Z AUTO 08006KT 10SM OVC008 06/05 A3055 RMK AO2 RAE42 SLP345
                 P0003 T00560050 =
2018-02-23 10:23 METAR KMIV 231523Z AUTO 07010KT 6SM -RA BR OVC008 06/04 A3056 RMK AO2 P0003
                 T00560044 =
2018-02-23 10:02 METAR KMIV 231502Z AUTO 07007KT 2 1/2SM -RA BR OVC008 05/04 A3057 RMK AO2 CIG
                 005V012 P0001 T00500039 =
2018-02-23 09:54 METAR KMIV 231454Z AUTO 07007KT 3SM -RA BR OVC009 05/04 A3057 RMK AO2 CIG
                 005V012 SLP353 P0003 60008 T00500039 58004 =
2018-02-23 08:54 METAR KMIV 231354Z AUTO 06006KT 3SM -RA BR OVC007 04/04 A3059 RMK AO2 SLP358
                 P0004 T00440039 =
2018-02-23 08:49 METAR KMIV 231349Z AUTO 06006KT 2SM RA BR OVC007 04/04 A3059 RMK AO2 P0004 =
2018-02-23 07:54 METAR KMIV 231254Z AUTO 06006KT 8SM -RA OVC007 04/03 A3058 RMK AO2
                 RAE1158B16E25B49 CIG 005V011 SLP356 P0001 T00390033 =
2018-02-23 06:54 METAR KMIV 231154Z AUTO 06008KT 10SM -RA OVC007 04/03 A3058 RMK AO2 CIG 005V010
                 SLP355 P0002 60006 70009 T00390028 10039 20039 55004 =
2018-02-23 05:54 METAR KMIV 231054Z AUTO 05010KT 6SM -RA BR OVC008 04/03 A3057 RMK AO2 CIG
                 006V011 SLP353 P0003 T00390028 =
2018-02-23 05:44 METAR KMIV 231044Z AUTO 04007KT 4SM -RA BR OVC009 04/03 A3059 RMK AO2 CIG
                 006V012 P0003 T00390028 =
2018-02-23 04:54 METAR KMIV 230954Z AUTO 07006KT 6SM RA BR OVC011 04/02 A3059 RMK AO2 RAB00
                 SLP360 P0001 T00390022 =
2018-02-23 03:54 METAR KMIV 230854Z AUTO 06010KT 10SM OVC012 04/02 A3059 RMK AO2 SLP358 T00390017
                 58004 =

Support USWX by starting your Amazon purchase here.